Time;durP1;ratioP1;P1;durP2;ratioP2;P2;SDS_P1;SDS_P2;PMS_P1;PMS_P2;Temp;Humidity;BMP_temperature;BMP_pressure;BME280_temperature;BME280_humidity;BME280_pressure;Samples;Min_cycle;Max_cycle;Signal;HPM_P1;HPM_P2
2022/01/27 00:02:19;;;;;;;;;;;5.60;99.90;;;;;;5037258;28;19959;-83
2022/01/27 00:04:33;;;;;;;;;;;6.00;99.90;;;;;;5035367;28;20019;-83
2022/01/27 00:06:59;;;;;;;;;;;5.60;99.90;;;;;;5036512;28;19931;-83
2022/01/27 00:09:42;;;;;;;;;;;6.40;99.90;;;;;;5036725;28;20404;-83
2022/01/27 00:12:08;;;;;;;;;;;5.70;99.90;;;;;;5039302;28;19944;-83
2022/01/27 00:14:33;;;;;;;;;;;5.60;99.90;;;;;;5036648;28;20419;-83
2022/01/27 00:17:03;;;;;;;;;;;6.30;99.90;;;;;;5037827;28;19928;-83
2022/01/27 00:19:28;;;;;;;;;;;5.70;99.90;;;;;;5074450;28;19924;-83
2022/01/27 00:21:54;;;;;;;;;;;5.70;99.90;;;;;;5074506;28;19925;-83
2022/01/27 00:24:20;;;;;;;;;;;5.70;99.90;;;;;;5074293;28;20405;-83
2022/01/27 00:26:45;;;;;;;;;;;5.70;99.90;;;;;;5057527;28;19950;-83
2022/01/27 00:29:11;;;;;;;;;;;5.70;99.90;;;;;;5074305;28;19924;-83
2022/01/27 00:31:36;;;;;;;;;;;5.60;99.90;;;;;;5074047;28;19931;-83
2022/01/27 00:34:04;;;;;;;;;;;5.70;99.90;;;;;;5073932;28;20337;-83
2022/01/27 00:36:30;;;;;;;;;;;5.60;99.90;;;;;;5073863;28;19925;-83
2022/01/27 00:38:56;;;;;;;;;;;5.60;99.90;;;;;;5075217;28;19931;-83
2022/01/27 00:41:22;;;;;;;;;;;5.60;99.90;;;;;;5074026;28;19921;-83
2022/01/27 00:43:48;;;;;;;;;;;5.60;99.90;;;;;;5073606;28;20313;-83
2022/01/27 00:46:16;;;;;;;;;;;5.60;99.90;;;;;;5073843;28;20358;-83
2022/01/27 00:48:43;;;;;;;;;;;5.60;99.90;;;;;;5073643;28;19931;-83
2022/01/27 00:51:11;;;;;;;;;;;5.50;99.90;;;;;;5074013;28;20019;-83
2022/01/27 00:53:47;;;;;;;;;;;5.50;99.90;;;;;;5073931;28;20362;-83
2022/01/27 01:01:13;;;;;;;;;;;5.40;99.90;;;;;;5091260;28;19978;-83
2022/01/27 01:03:43;;;;;;;;;;;5.50;99.90;;;;;;5096994;28;19970;-84
2022/01/27 01:06:33;;;;;;;;;;;6.10;99.90;;;;;;5096912;28;19923;-83
2022/01/27 01:19:08;;;;;;;;;;;5.40;99.90;;;;;;5095765;28;20014;-83
2022/01/27 01:29:55;;;;;;;;;;;5.30;99.90;;;;;;5035064;28;19931;-83
2022/01/27 01:32:42;;;;;;;;;;;5.30;99.90;;;;;;5018719;28;19929;-83
2022/01/27 01:35:09;;;;;;;;;;;5.40;99.90;;;;;;5052079;28;19931;-83
2022/01/27 01:37:40;;;;;;;;;;;5.30;99.90;;;;;;5035073;28;20024;-83
2022/01/27 01:40:07;;;;;;;;;;;5.60;99.90;;;;;;5035237;28;19928;-83
2022/01/27 01:42:32;;;;;;;;;;;5.30;99.90;;;;;;5035081;28;19979;-83
2022/01/27 01:45:05;;;;;;;;;;;5.30;99.90;;;;;;5037849;28;19968;-83
2022/01/27 01:47:30;;;;;;;;;;;5.30;99.90;;;;;;5040701;28;19964;-83
2022/01/27 01:49:56;;;;;;;;;;;5.20;99.90;;;;;;5034966;28;19971;-83
2022/01/27 01:52:22;;;;;;;;;;;5.20;99.90;;;;;;5035004;28;20311;-82
2022/01/27 01:54:47;;;;;;;;;;;5.20;99.90;;;;;;5018625;28;19971;-83
2022/01/27 01:57:13;;;;;;;;;;;5.20;99.90;;;;;;5034864;28;20020;-84
2022/01/27 01:59:38;;;;;;;;;;;5.20;99.90;;;;;;5034622;28;20387;-83
2022/01/27 02:02:04;;;;;;;;;;;5.20;99.90;;;;;;5034986;28;20287;-83
2022/01/27 02:04:29;;;;;;;;;;;5.80;99.90;;;;;;5035126;28;20432;-83
2022/01/27 02:06:59;;;;;;;;;;;5.10;99.90;;;;;;5058773;28;19928;-83
2022/01/27 02:20:04;;;;;;;;;;;4.90;99.90;;;;;;5072627;28;19920;-83
2022/01/27 02:22:30;;;;;;;;;;;4.90;99.90;;;;;;5055650;28;19975;-83
2022/01/27 02:24:55;;;;;;;;;;;5.00;99.90;;;;;;5072237;28;19979;-83
2022/01/27 02:27:21;;;;;;;;;;;5.00;99.90;;;;;;5072348;28;19924;-83
2022/01/27 02:29:47;;;;;;;;;;;5.00;99.90;;;;;;5072845;28;19947;-83
2022/01/27 02:32:13;;;;;;;;;;;5.00;99.90;;;;;;5076351;28;20322;-83
2022/01/27 02:34:39;;;;;;;;;;;5.10;99.90;;;;;;5076219;28;19976;-83
2022/01/27 02:37:05;;;;;;;;;;;5.10;99.90;;;;;;5076170;28;19934;-83
2022/01/27 02:39:30;;;;;;;;;;;5.80;99.90;;;;;;5077130;28;20011;-83
2022/01/27 02:42:09;;;;;;;;;;;5.30;99.90;;;;;;5077736;28;19925;-83
2022/01/27 02:44:44;;;;;;;;;;;5.30;99.90;;;;;;5076276;28;20424;-83
2022/01/27 02:47:10;;;;;;;;;;;5.30;99.90;;;;;;5076262;28;19924;-83
2022/01/27 02:49:36;;;;;;;;;;;5.40;99.90;;;;;;5059314;28;19957;-83
2022/01/27 02:52:01;;;;;;;;;;;5.40;99.90;;;;;;5077154;28;19924;-83
2022/01/27 02:54:27;;;;;;;;;;;5.40;99.90;;;;;;5076122;28;19940;-83
2022/01/27 02:56:52;;;;;;;;;;;5.80;99.90;;;;;;5077277;28;20013;-83
2022/01/27 02:59:20;;;;;;;;;;;5.90;99.90;;;;;;5075695;28;20382;-83
2022/01/27 03:01:47;;;;;;;;;;;5.50;99.90;;;;;;5098647;28;20040;-83
2022/01/27 03:04:12;;;;;;;;;;;5.50;99.90;;;;;;5100209;28;19927;-83
2022/01/27 03:06:38;;;;;;;;;;;5.50;99.90;;;;;;5100610;28;19969;-83
2022/01/27 03:09:04;;;;;;;;;;;5.50;99.90;;;;;;5082683;28;19923;-83
2022/01/27 03:11:44;;;;;;;;;;;5.50;99.90;;;;;;5099171;28;19931;-83
2022/01/27 03:14:10;;;;;;;;;;;5.50;99.90;;;;;;5081892;28;19924;-83
2022/01/27 03:16:36;;;;;;;;;;;5.60;99.90;;;;;;5099068;28;19923;-84
2022/01/27 03:19:01;;;;;;;;;;;5.60;99.90;;;;;;5082418;28;20363;-84
2022/01/27 03:21:27;;;;;;;;;;;6.20;99.90;;;;;;5082025;28;19931;-83
2022/01/27 03:23:53;;;;;;;;;;;5.60;99.90;;;;;;5098984;28;19931;-83
2022/01/27 03:26:19;;;;;;;;;;;5.60;99.90;;;;;;5098760;28;19923;-83
2022/01/27 03:28:46;;;;;;;;;;;6.20;99.90;;;;;;5098562;28;20401;-83
2022/01/27 03:31:12;;;;;;;;;;;5.60;99.90;;;;;;5098820;28;20374;-83
2022/01/27 03:33:39;;;;;;;;;;;5.60;99.90;;;;;;5098666;28;19931;-83
2022/01/27 03:36:05;;;;;;;;;;;5.60;99.90;;;;;;5098398;28;19924;-83
2022/01/27 03:38:30;;;;;;;;;;;5.60;99.90;;;;;;5099592;28;19924;-83
2022/01/27 03:40:56;;;;;;;;;;;5.60;99.90;;;;;;5098221;28;19979;-83
2022/01/27 03:43:21;;;;;;;;;;;5.60;99.90;;;;;;5098414;28;20259;-83
2022/01/27 03:45:47;;;;;;;;;;;5.60;99.90;;;;;;5098321;28;20006;-83
2022/01/27 03:48:12;;;;;;;;;;;5.70;99.90;;;;;;5098399;28;20023;-83
2022/01/27 03:50:38;;;;;;;;;;;5.60;99.90;;;;;;5101377;28;20358;-83
2022/01/27 03:53:03;;;;;;;;;;;5.70;99.90;;;;;;5103106;28;19928;-83
2022/01/27 03:55:29;;;;;;;;;;;5.70;99.90;;;;;;5081285;28;19931;-84
2022/01/27 03:57:54;;;;;;;;;;;5.70;99.90;;;;;;5098263;28;19934;-83
2022/01/27 04:00:20;;;;;;;;;;;5.70;99.90;;;;;;5073437;28;19970;-83
2022/01/27 04:02:57;;;;;;;;;;;5.70;99.90;;;;;;5077979;28;20002;-83
2022/01/27 04:05:23;;;;;;;;;;;6.20;99.90;;;;;;5077528;28;20431;-83
2022/01/27 04:07:50;;;;;;;;;;;5.80;99.90;;;;;;5077764;28;19924;-83
2022/01/27 04:10:15;;;;;;;;;;;6.30;99.90;;;;;;5077627;28;19954;-83
2022/01/27 04:12:41;;;;;;;;;;;5.80;99.90;;;;;;5078248;28;20366;-83
2022/01/27 04:15:06;;;;;;;;;;;5.80;99.90;;;;;;5077730;28;19924;-83
2022/01/27 04:17:32;;;;;;;;;;;5.80;99.90;;;;;;5063651;28;20022;-83
2022/01/27 04:19:57;;;;;;;;;;;5.90;99.90;;;;;;5077593;28;19924;-83
2022/01/27 04:22:23;;;;;;;;;;;5.80;99.90;;;;;;5077309;28;20053;-83
2022/01/27 04:24:48;;;;;;;;;;;5.90;99.90;;;;;;5077369;28;19924;-83
2022/01/27 04:27:21;;;;;;;;;;;5.80;99.90;;;;;;5077602;28;20044;-84
2022/01/27 04:29:47;;;;;;;;;;;5.90;99.90;;;;;;5077652;28;19928;-83
2022/01/27 04:32:19;;;;;;;;;;;5.90;99.90;;;;;;5077218;28;19927;-83
2022/01/27 04:34:45;;;;;;;;;;;6.20;99.90;;;;;;5077026;28;20382;-83
2022/01/27 04:37:12;;;;;;;;;;;5.90;99.90;;;;;;5080722;28;19930;-83
2022/01/27 04:39:53;;;;;;;;;;;5.90;99.90;;;;;;5077016;28;19924;-83
2022/01/27 04:42:32;;;;;;;;;;;5.90;99.90;;;;;;5077247;28;19989;-83
2022/01/27 04:45:02;;;;;;;;;;;5.80;99.90;;;;;;5076993;28;19975;-83
2022/01/27 04:47:34;;;;;;;;;;;5.90;99.90;;;;;;5076986;28;19978;-83
2022/01/27 04:50:00;;;;;;;;;;;5.90;99.90;;;;;;5077018;28;20427;-83
2022/01/27 04:52:28;;;;;;;;;;;5.90;99.90;;;;;;5059559;28;19932;-83
2022/01/27 04:55:05;;;;;;;;;;;5.90;99.90;;;;;;5095265;28;19924;-83
2022/01/27 04:57:31;;;;;;;;;;;5.90;99.90;;;;;;5095403;28;19924;-83
2022/01/27 04:59:57;;;;;;;;;;;5.90;99.90;;;;;;5081287;28;19931;-83
2022/01/27 05:02:44;;;;;;;;;;;5.90;99.90;;;;;;5096923;28;20006;-83
2022/01/27 05:05:10;;;;;;;;;;;6.30;99.90;;;;;;5097083;28;20033;-84
2022/01/27 05:07:36;;;;;;;;;;;6.00;99.90;;;;;;5096823;28;19926;-83
2022/01/27 05:10:10;;;;;;;;;;;5.90;99.90;;;;;;5096730;28;19924;-83
2022/01/27 05:12:49;;;;;;;;;;;6.00;99.90;;;;;;5096997;28;19923;-83
2022/01/27 05:15:14;;;;;;;;;;;6.00;99.90;;;;;;5097019;28;20293;-83
2022/01/27 05:17:40;;;;;;;;;;;6.10;99.90;;;;;;5096677;28;19923;-83
2022/01/27 05:20:06;;;;;;;;;;;6.60;99.90;;;;;;5096564;28;19931;-83
2022/01/27 05:22:31;;;;;;;;;;;6.10;99.90;;;;;;5079018;28;20297;-83
2022/01/27 05:24:57;;;;;;;;;;;6.20;99.90;;;;;;5076703;28;19924;-83
2022/01/27 05:27:23;;;;;;;;;;;6.10;99.90;;;;;;5076294;28;19931;-83
2022/01/27 05:29:48;;;;;;;;;;;6.10;99.90;;;;;;5076475;28;20386;-83
2022/01/27 05:32:14;;;;;;;;;;;6.10;99.90;;;;;;5059334;28;19924;-83
2022/01/27 05:34:39;;;;;;;;;;;6.10;99.90;;;;;;5076185;28;19924;-83
2022/01/27 05:37:05;;;;;;;;;;;6.10;99.90;;;;;;5059266;28;19934;-83
2022/01/27 05:39:30;;;;;;;;;;;6.10;99.90;;;;;;5076092;28;19924;-83
2022/01/27 05:41:56;;;;;;;;;;;6.10;99.90;;;;;;5059325;28;19931;-84
2022/01/27 05:44:21;;;;;;;;;;;6.40;99.90;;;;;;5075939;28;19928;-83
2022/01/27 05:46:47;;;;;;;;;;;6.10;99.90;;;;;;5094778;28;19931;-83
2022/01/27 05:49:12;;;;;;;;;;;6.10;99.90;;;;;;5076018;28;19924;-83
2022/01/27 05:51:38;;;;;;;;;;;6.20;99.90;;;;;;5076027;28;19924;-83
2022/01/27 05:54:04;;;;;;;;;;;6.10;99.90;;;;;;5076351;28;20363;-83
2022/01/27 05:56:29;;;;;;;;;;;6.10;99.90;;;;;;5078018;28;20358;-83
2022/01/27 05:58:55;;;;;;;;;;;6.10;99.90;;;;;;5081773;28;19928;-82
2022/01/27 06:01:20;;;;;;;;;;;6.20;99.90;;;;;;5091773;28;19923;-83
2022/01/27 06:03:46;;;;;;;;;;;6.20;99.90;;;;;;5096029;28;19969;-83
2022/01/27 06:06:11;;;;;;;;;;;6.70;99.90;;;;;;5095783;28;20019;-83
2022/01/27 06:08:37;;;;;;;;;;;6.10;99.90;;;;;;5096014;28;19924;-83
2022/01/27 06:11:02;;;;;;;;;;;6.10;99.90;;;;;;5095883;28;19931;-83
2022/01/27 06:13:28;;;;;;;;;;;6.00;99.90;;;;;;5095833;28;20282;-83
2022/01/27 06:15:53;;;;;;;;;;;6.00;99.90;;;;;;5095928;28;19932;-83
2022/01/27 06:18:19;;;;;;;;;;;6.00;99.90;;;;;;5079035;28;19924;-82
2022/01/27 06:20:45;;;;;;;;;;;6.10;99.90;;;;;;5078875;28;19924;-82
2022/01/27 06:23:14;;;;;;;;;;;5.90;99.90;;;;;;5096424;28;19924;-82
2022/01/27 06:25:40;;;;;;;;;;;5.90;99.90;;;;;;5079336;28;19928;-82
2022/01/27 06:28:06;;;;;;;;;;;5.90;99.90;;;;;;5095661;28;19964;-82
2022/01/27 06:30:34;;;;;;;;;;;5.90;99.90;;;;;;5095985;28;19927;-83
2022/01/27 06:33:04;;;;;;;;;;;5.90;99.90;;;;;;5095926;28;20048;-82
2022/01/27 06:35:29;;;;;;;;;;;5.90;99.90;;;;;;5095922;28;19924;-82
2022/01/27 06:37:55;;;;;;;;;;;5.90;99.90;;;;;;5078718;28;20384;-82
2022/01/27 06:40:21;;;;;;;;;;;6.30;99.90;;;;;;5095633;28;19926;-82
2022/01/27 06:42:46;;;;;;;;;;;5.90;99.90;;;;;;5095808;28;19923;-82
2022/01/27 06:45:12;;;;;;;;;;;6.40;99.90;;;;;;5095533;28;19928;-85
2022/01/27 06:47:37;;;;;;;;;;;5.80;99.90;;;;;;5079174;28;19931;-84
2022/01/27 06:50:04;;;;;;;;;;;5.90;99.90;;;;;;5095596;28;20396;-84
2022/01/27 06:52:29;;;;;;;;;;;5.80;99.90;;;;;;5095621;28;19963;-84
2022/01/27 06:54:55;;;;;;;;;;;5.80;99.90;;;;;;5078664;28;19978;-84
2022/01/27 06:57:21;;;;;;;;;;;5.80;99.90;;;;;;5095481;28;19979;-84
2022/01/27 06:59:47;;;;;;;;;;;5.90;99.90;;;;;;5075343;28;19970;-84
2022/01/27 07:02:13;;;;;;;;;;;5.90;99.90;;;;;;5058862;28;19928;-84
2022/01/27 07:04:38;;;;;;;;;;;5.90;99.90;;;;;;5075480;28;19925;-84
2022/01/27 07:07:04;;;;;;;;;;;5.90;99.90;;;;;;5074978;28;20424;-84
2022/01/27 07:09:29;;;;;;;;;;;5.90;99.90;;;;;;5075389;28;19924;-84
2022/01/27 07:11:55;;;;;;;;;;;5.90;99.90;;;;;;5075203;28;19928;-84
2022/01/27 07:14:20;;;;;;;;;;;5.90;99.90;;;;;;5075062;28;19931;-85
2022/01/27 07:16:46;;;;;;;;;;;5.90;99.90;;;;;;5077085;28;19932;-84
2022/01/27 07:19:12;;;;;;;;;;;6.10;99.90;;;;;;5078718;28;19931;-84
2022/01/27 07:21:37;;;;;;;;;;;6.10;99.90;;;;;;5078550;28;19978;-84
2022/01/27 07:24:03;;;;;;;;;;;6.10;99.90;;;;;;5061589;28;19924;-84
2022/01/27 07:26:28;;;;;;;;;;;6.10;99.90;;;;;;5078599;28;19924;-85
2022/01/27 07:28:55;;;;;;;;;;;6.20;99.90;;;;;;5078412;28;20375;-84
2022/01/27 07:31:20;;;;;;;;;;;6.20;99.90;;;;;;5061783;28;19924;-85
2022/01/27 07:33:48;;;;;;;;;;;6.20;99.90;;;;;;5061836;28;20014;-84
2022/01/27 07:36:16;;;;;;;;;;;6.80;99.90;;;;;;5078275;28;19975;-85
2022/01/27 07:38:43;;;;;;;;;;;6.30;99.90;;;;;;5078441;28;19959;-84
2022/01/27 07:41:08;;;;;;;;;;;7.00;99.90;;;;;;5062111;28;19947;-84
2022/01/27 07:43:34;;;;;;;;;;;6.90;99.90;;;;;;5078320;28;20366;-85
2022/01/27 07:46:00;;;;;;;;;;;6.80;99.90;;;;;;5061694;28;20379;-85
2022/01/27 07:48:26;;;;;;;;;;;7.20;99.90;;;;;;5061312;28;19987;-85
2022/01/27 07:50:51;;;;;;;;;;;6.50;99.90;;;;;;5078124;28;19924;-85
2022/01/27 07:53:17;;;;;;;;;;;6.50;99.90;;;;;;5063489;28;19924;-84
2022/01/27 07:55:42;;;;;;;;;;;6.70;99.90;;;;;;5061103;28;20002;-85
2022/01/27 07:58:08;;;;;;;;;;;6.80;99.90;;;;;;5078240;28;20289;-85
2022/01/27 08:00:34;;;;;;;;;;;6.60;99.90;;;;;;5087342;28;20345;-85
2022/01/27 08:02:59;;;;;;;;;;;6.60;99.90;;;;;;5099422;28;19930;-84
2022/01/27 08:05:25;;;;;;;;;;;6.60;99.90;;;;;;5099825;28;20366;-84
2022/01/27 08:07:50;;;;;;;;;;;6.70;99.90;;;;;;5097956;28;19977;-85
2022/01/27 08:10:16;;;;;;;;;;;6.70;99.90;;;;;;5097977;28;19930;-85
2022/01/27 08:12:42;;;;;;;;;;;7.20;99.90;;;;;;5098424;28;19946;-85
2022/01/27 08:15:08;;;;;;;;;;;6.70;99.90;;;;;;5098101;28;19974;-84
2022/01/27 08:17:34;;;;;;;;;;;6.80;99.90;;;;;;5097587;28;19971;-85
2022/01/27 08:19:59;;;;;;;;;;;6.80;99.90;;;;;;5098653;28;19924;-84
2022/01/27 08:22:25;;;;;;;;;;;6.80;99.90;;;;;;5081353;28;19958;-84
2022/01/27 08:24:50;;;;;;;;;;;7.40;99.90;;;;;;5097510;28;19923;-85
2022/01/27 08:27:19;;;;;;;;;;;6.90;99.90;;;;;;5097846;28;19952;-85
2022/01/27 08:29:50;;;;;;;;;;;6.90;99.90;;;;;;5080932;28;20031;-85
2022/01/27 08:32:19;;;;;;;;;;;7.60;99.90;;;;;;5097644;28;19930;-85
2022/01/27 08:34:44;;;;;;;;;;;7.30;99.90;;;;;;5097465;28;19929;-85
2022/01/27 08:37:14;;;;;;;;;;;7.00;99.90;;;;;;5097511;28;20327;-85
2022/01/27 08:39:40;;;;;;;;;;;7.10;99.90;;;;;;5083655;28;19923;-85
2022/01/27 08:42:06;;;;;;;;;;;7.40;99.90;;;;;;5080683;28;19924;-85
2022/01/27 08:44:32;;;;;;;;;;;7.10;99.90;;;;;;5097250;28;20030;-85
2022/01/27 08:46:58;;;;;;;;;;;7.40;99.90;;;;;;5080810;28;20411;-85
2022/01/27 08:49:26;;;;;;;;;;;7.60;99.90;;;;;;5080457;28;19963;-85
2022/01/27 08:51:52;;;;;;;;;;;7.90;99.90;;;;;;5097175;28;19923;-85
2022/01/27 08:54:18;;;;;;;;;;;7.30;99.90;;;;;;5097177;28;20370;-85
2022/01/27 08:56:44;;;;;;;;;;;7.50;99.90;;;;;;5097137;28;19953;-85
2022/01/27 08:59:09;;;;;;;;;;;7.50;99.90;;;;;;5098958;28;20023;-85
2022/01/27 09:01:35;;;;;;;;;;;7.50;99.90;;;;;;5083082;28;19945;-85
2022/01/27 09:04:03;;;;;;;;;;;7.60;99.90;;;;;;5076605;28;19930;-85
2022/01/27 09:06:28;;;;;;;;;;;7.60;99.90;;;;;;5059712;28;19924;-85
2022/01/27 09:08:55;;;;;;;;;;;7.60;99.90;;;;;;5076492;28;19969;-84
2022/01/27 09:11:21;;;;;;;;;;;7.60;99.90;;;;;;5076522;28;19924;-85
2022/01/27 09:13:46;;;;;;;;;;;7.90;99.90;;;;;;5076299;28;19932;-85
2022/01/27 09:16:12;;;;;;;;;;;8.10;99.90;;;;;;5059667;28;19972;-85
2022/01/27 09:18:38;;;;;;;;;;;8.00;99.90;;;;;;5076481;28;19924;-85
2022/01/27 09:21:10;;;;;;;;;;;8.00;99.90;;;;;;5076313;28;19931;-84
2022/01/27 09:23:35;;;;;;;;;;;7.70;99.90;;;;;;5076353;28;19927;-85
2022/01/27 09:26:05;;;;;;;;;;;7.60;99.90;;;;;;5076344;28;19946;-85
2022/01/27 09:28:31;;;;;;;;;;;7.70;99.90;;;;;;5059677;28;20007;-85
2022/01/27 09:30:57;;;;;;;;;;;7.80;99.90;;;;;;5059509;28;20019;-85
2022/01/27 09:33:23;;;;;;;;;;;7.80;99.90;;;;;;5076384;28;19934;-85
2022/01/27 09:35:48;;;;;;;;;;;7.80;99.90;;;;;;5076357;28;19977;-85
2022/01/27 09:38:16;;;;;;;;;;;8.00;99.90;;;;;;5059102;28;19975;-85
2022/01/27 09:40:42;;;;;;;;;;;7.90;99.90;;;;;;5059655;28;19931;-85
2022/01/27 09:43:14;;;;;;;;;;;7.80;99.90;;;;;;5075896;28;20404;-85
2022/01/27 09:45:39;;;;;;;;;;;7.80;99.90;;;;;;5059306;28;20363;-85
2022/01/27 09:48:16;;;;;;;;;;;8.20;99.90;;;;;;5059215;28;19924;-85
2022/01/27 09:51:12;;;;;;;;;;;7.90;99.90;;;;;;5073027;28;20290;-85
2022/01/27 09:53:35;;;;;;;;;;;8.50;99.90;;;;;;5075954;28;20338;-85
2022/01/27 09:56:00;;;;;;;;;;;7.90;99.90;;;;;;5075999;28;20019;-85
2022/01/27 09:58:27;;;;;;;;;;;7.90;99.90;;;;;;5075960;28;20389;-85
2022/01/27 10:00:53;;;;;;;;;;;7.90;99.90;;;;;;5071331;28;19931;-85
2022/01/27 10:03:18;;;;;;;;;;;7.90;99.90;;;;;;5096029;28;19924;-85
2022/01/27 10:05:44;;;;;;;;;;;7.90;99.90;;;;;;5095743;28;19927;-85
2022/01/27 10:08:18;;;;;;;;;;;7.90;99.90;;;;;;5096065;28;20022;-85
2022/01/27 10:10:45;;;;;;;;;;;7.90;99.90;;;;;;5079550;28;19931;-85
2022/01/27 10:13:25;;;;;;;;;;;8.20;99.90;;;;;;5100454;28;19946;-85
2022/01/27 10:15:51;;;;;;;;;;;8.40;99.90;;;;;;5095833;28;19924;-85
2022/01/27 10:18:18;;;;;;;;;;;8.00;99.90;;;;;;5079136;28;19923;-85
2022/01/27 10:20:49;;;;;;;;;;;8.00;99.90;;;;;;5096374;28;19947;-85
2022/01/27 10:23:18;;;;;;;;;;;8.60;99.90;;;;;;5079073;28;19935;-85
2022/01/27 10:25:47;;;;;;;;;;;8.20;99.90;;;;;;5078864;28;19973;-85
2022/01/27 10:28:40;;;;;;;;;;;8.10;99.90;;;;;;5096329;28;20018;-84
2022/01/27 10:31:07;;;;;;;;;;;8.20;99.90;;;;;;5095845;28;19928;-84
2022/01/27 10:34:02;;;;;;;;;;;8.80;99.90;;;;;;5095795;28;19923;-86
2022/01/27 10:36:29;;;;;;;;;;;8.30;99.90;;;;;;5014862;28;20351;-86
2022/01/27 10:38:56;;;;;;;;;;;8.50;99.90;;;;;;4998723;28;19933;-85
2022/01/27 10:41:23;;;;;;;;;;;8.30;99.90;;;;;;5015532;28;20334;-85
2022/01/27 10:43:48;;;;;;;;;;;9.00;99.90;;;;;;5014727;28;19925;-84
2022/01/27 10:46:29;;;;;;;;;;;8.50;99.90;;;;;;4998526;28;20008;-84
2022/01/27 10:49:01;;;;;;;;;;;8.40;99.90;;;;;;5015052;28;19925;-84
2022/01/27 10:51:32;;;;;;;;;;;8.40;99.90;;;;;;5016666;28;19979;-84
2022/01/27 10:54:05;;;;;;;;;;;8.50;99.90;;;;;;5018965;28;19972;-84
2022/01/27 10:56:32;;;;;;;;;;;8.90;99.90;;;;;;5018432;28;20292;-84
2022/01/27 10:58:59;;;;;;;;;;;8.50;99.90;;;;;;5018751;28;19924;-84
2022/01/27 11:01:26;;;;;;;;;;;9.00;99.90;;;;;;5002423;28;20308;-84
2022/01/27 11:03:52;;;;;;;;;;;8.60;99.90;;;;;;4982358;28;20020;-84
2022/01/27 11:06:19;;;;;;;;;;;8.60;99.90;;;;;;4998259;28;19932;-84
2022/01/27 11:08:44;;;;;;;;;;;8.70;99.90;;;;;;5015171;28;19929;-84
2022/01/27 11:11:10;;;;;;;;;;;8.80;99.90;;;;;;4982310;28;19938;-84
2022/01/27 11:13:35;;;;;;;;;;;8.90;99.90;;;;;;5064073;28;19927;-84
2022/01/27 11:16:03;;;;;;;;;;;8.90;99.90;;;;;;5061855;28;20307;-84
2022/01/27 11:18:29;;;;;;;;;;;8.90;99.90;;;;;;5079136;28;20092;-84
2022/01/27 11:21:03;;;;;;;;;;;8.80;99.90;;;;;;5078896;28;19924;-84
2022/01/27 11:26:22;;;;;;;;;;;8.80;99.90;;;;;;5078744;28;19924;-84
2022/01/27 11:28:48;;;;;;;;;;;8.80;99.90;;;;;;5062588;28;20419;-84
2022/01/27 11:31:17;;;;;;;;;;;8.80;99.90;;;;;;5061407;28;19931;-84
2022/01/27 11:33:43;;;;;;;;;;;8.80;99.90;;;;;;5062028;28;20279;-84
2022/01/27 11:36:09;;;;;;;;;;;9.00;99.90;;;;;;5078265;28;19947;-84
2022/01/27 11:38:35;;;;;;;;;;;8.90;99.90;;;;;;5078799;28;20437;-84
2022/01/27 11:41:00;;;;;;;;;;;9.00;99.90;;;;;;5078518;28;20374;-84
2022/01/27 11:43:33;;;;;;;;;;;9.00;99.90;;;;;;5078210;28;20398;-84
2022/01/27 11:46:11;;;;;;;;;;;9.00;99.90;;;;;;5078227;28;19924;-84
2022/01/27 11:48:37;;;;;;;;;;;9.00;99.90;;;;;;5078291;28;19927;-84
2022/01/27 11:51:07;;;;;;;;;;;9.40;99.90;;;;;;5061755;28;19924;-84
2022/01/27 11:53:40;;;;;;;;;;;9.00;99.90;;;;;;5078050;28;19920;-84
2022/01/27 11:56:15;;;;;;;;;;;8.90;99.90;;;;;;5078180;28;19982;-84
2022/01/27 11:58:47;;;;;;;;;;;8.90;99.90;;;;;;5078771;28;19931;-84
2022/01/27 12:01:17;;;;;;;;;;;8.90;99.90;;;;;;5076043;28;20288;-84
2022/01/27 12:04:02;;;;;;;;;;;8.90;99.90;;;;;;5098583;28;19931;-84
2022/01/27 12:06:28;;;;;;;;;;;8.90;99.90;;;;;;5098241;28;20010;-84
2022/01/27 12:09:13;;;;;;;;;;;8.90;99.90;;;;;;5098253;28;20385;-84
2022/01/27 12:11:43;;;;;;;;;;;8.90;99.90;;;;;;5080848;28;20026;-84
2022/01/27 12:14:08;;;;;;;;;;;8.90;99.90;;;;;;5081175;28;19970;-83
2022/01/27 12:19:10;;;;;;;;;;;9.50;99.90;;;;;;5097877;28;19931;-84
2022/01/27 12:21:37;;;;;;;;;;;9.00;99.90;;;;;;5101270;28;20343;-84
2022/01/27 12:26:52;;;;;;;;;;;9.00;99.90;;;;;;5097845;28;20030;-84
2022/01/27 12:29:21;;;;;;;;;;;9.00;99.90;;;;;;5097726;28;19970;-84
2022/01/27 12:31:46;;;;;;;;;;;9.10;99.90;;;;;;5080579;28;20048;-84
2022/01/27 12:34:12;;;;;;;;;;;9.20;99.90;;;;;;5097691;28;19924;-84
2022/01/27 12:36:38;;;;;;;;;;;9.20;99.90;;;;;;5097506;28;19928;-84
2022/01/27 12:39:03;;;;;;;;;;;9.10;99.90;;;;;;5097587;28;19985;-83
2022/01/27 12:41:35;;;;;;;;;;;9.10;99.90;;;;;;5097393;28;19930;-84
2022/01/27 12:44:10;;;;;;;;;;;9.10;99.90;;;;;;5080860;28;20270;-84
2022/01/27 12:46:36;;;;;;;;;;;9.10;99.90;;;;;;5097321;28;19942;-84
2022/01/27 12:49:03;;;;;;;;;;;9.10;99.90;;;;;;5097153;28;19924;-84
2022/01/27 12:51:46;;;;;;;;;;;9.10;99.90;;;;;;5096933;28;19930;-84
2022/01/27 12:54:11;;;;;;;;;;;8.80;99.90;;;;;;5097618;28;19924;-84
2022/01/27 12:56:37;;;;;;;;;;;9.10;99.90;;;;;;5096937;28;20423;-84
2022/01/27 12:59:11;;;;;;;;;;;9.30;99.90;;;;;;5080008;28;20018;-84
2022/01/27 13:01:37;;;;;;;;;;;9.50;99.90;;;;;;5078370;28;20013;-84
2022/01/27 13:04:03;;;;;;;;;;;9.90;99.90;;;;;;5076788;28;19924;-84
2022/01/27 13:06:29;;;;;;;;;;;9.30;99.90;;;;;;5076624;28;19924;-86
2022/01/27 13:09:11;;;;;;;;;;;9.30;99.90;;;;;;5076862;28;19928;-86
2022/01/27 13:11:39;;;;;;;;;;;9.20;99.90;;;;;;5059750;28;19925;-86
2022/01/27 13:14:08;;;;;;;;;;;9.30;99.90;;;;;;5075989;28;19924;-86
2022/01/27 13:16:47;;;;;;;;;;;9.30;99.90;;;;;;5076334;28;20032;-86
2022/01/27 13:19:30;;;;;;;;;;;9.20;99.90;;;;;;5059501;28;20026;-84
2022/01/27 13:22:04;;;;;;;;;;;9.20;99.90;;;;;;5064786;28;20034;-84
2022/01/27 13:24:33;;;;;;;;;;;9.20;99.90;;;;;;5076737;28;19924;-84
2022/01/27 13:27:08;;;;;;;;;;;9.10;99.90;;;;;;5076220;28;19920;-84
2022/01/27 13:29:38;;;;;;;;;;;9.00;99.90;;;;;;5076704;28;20367;-84
2022/01/27 13:32:04;;;;;;;;;;;9.00;99.90;;;;;;5076336;28;20358;-84
2022/01/27 13:34:30;;;;;;;;;;;8.90;99.90;;;;;;5076160;28;19924;-85
2022/01/27 13:36:56;;;;;;;;;;;9.30;99.90;;;;;;5059289;28;19955;-84
2022/01/27 13:42:05;;;;;;;;;;;9.40;99.90;;;;;;5076483;28;19958;-86
2022/01/27 13:44:31;;;;;;;;;;;8.80;99.90;;;;;;5060048;28;20264;-86
2022/01/27 13:47:01;;;;;;;;;;;9.40;99.90;;;;;;5059523;28;19924;-86
2022/01/27 13:49:31;;;;;;;;;;;9.00;99.90;;;;;;5076173;28;19928;-86
2022/01/27 13:52:07;;;;;;;;;;;9.40;99.90;;;;;;5076422;28;19924;-86
2022/01/27 13:54:33;;;;;;;;;;;8.80;99.90;;;;;;5059408;28;20264;-86
2022/01/27 13:57:04;;;;;;;;;;;8.80;99.90;;;;;;5075577;28;19931;-86
2022/01/27 13:59:53;;;;;;;;;;;8.80;99.90;;;;;;5059552;28;19976;-87
2022/01/27 14:02:25;;;;;;;;;;;8.80;99.90;;;;;;5095775;28;19968;-86
2022/01/27 14:04:52;;;;;;;;;;;8.90;99.90;;;;;;5096632;28;19924;-87
2022/01/27 14:07:24;;;;;;;;;;;9.10;99.90;;;;;;5092470;28;19924;-85
2022/01/27 14:09:52;;;;;;;;;;;8.80;99.90;;;;;;5092717;28;19924;-84
2022/01/27 14:12:20;;;;;;;;;;;8.80;99.90;;;;;;5075524;28;19967;-85
2022/01/27 14:14:50;;;;;;;;;;;9.30;99.90;;;;;;5076080;28;19981;-85
2022/01/27 14:17:19;;;;;;;;;;;8.70;99.90;;;;;;5075740;28;19924;-84
2022/01/27 14:19:44;;;;;;;;;;;8.80;99.90;;;;;;5092515;28;20015;-85
2022/01/27 14:22:16;;;;;;;;;;;9.10;99.90;;;;;;5075808;28;19967;-84
2022/01/27 14:25:00;;;;;;;;;;;9.50;99.90;;;;;;5059809;28;19925;-84
2022/01/27 14:27:36;;;;;;;;;;;9.70;99.90;;;;;;5096859;28;20359;-84
2022/01/27 14:30:03;;;;;;;;;;;9.90;99.90;;;;;;5096801;28;20378;-84
2022/01/27 14:32:31;;;;;;;;;;;9.90;99.90;;;;;;5082085;28;19924;-84
2022/01/27 14:34:56;;;;;;;;;;;9.90;99.90;;;;;;5082378;28;19927;-84
2022/01/27 14:37:22;;;;;;;;;;;9.30;99.90;;;;;;5096587;28;20397;-84
2022/01/27 14:39:48;;;;;;;;;;;9.10;99.90;;;;;;5096528;28;20382;-84
2022/01/27 14:42:16;;;;;;;;;;;9.60;99.90;;;;;;5096525;28;20294;-84
2022/01/27 14:44:42;;;;;;;;;;;9.60;99.90;;;;;;5096472;28;19985;-84
2022/01/27 14:47:08;;;;;;;;;;;9.70;99.90;;;;;;5096521;28;20282;-84
2022/01/27 14:49:38;;;;;;;;;;;10.10;99.90;;;;;;5096634;28;19928;-84
2022/01/27 14:52:10;;;;;;;;;;;9.90;99.90;;;;;;5096208;28;20489;-84
2022/01/27 14:54:35;;;;;;;;;;;9.70;99.90;;;;;;5062497;28;19938;-84
2022/01/27 14:57:01;;;;;;;;;;;9.30;99.90;;;;;;5096091;28;19924;-84
2022/01/27 14:59:28;;;;;;;;;;;9.00;99.90;;;;;;5079631;28;19924;-84
2022/01/27 15:01:54;;;;;;;;;;;9.40;99.90;;;;;;5059266;28;20328;-84
2022/01/27 15:04:19;;;;;;;;;;;8.90;99.90;;;;;;5059161;28;19924;-84
2022/01/27 15:06:45;;;;;;;;;;;8.40;99.90;;;;;;5058788;28;19928;-84
2022/01/27 15:09:10;;;;;;;;;;;8.30;99.90;;;;;;5075827;28;19931;-84
2022/01/27 15:11:36;;;;;;;;;;;8.70;99.90;;;;;;5075431;28;19921;-84
2022/01/27 15:18:48;;;;;;;;;;;8.60;99.90;;;;;;5075864;28;20282;-85
2022/01/27 15:19:36;;;;;;;;;;;7.90;99.90;;;;;;5058522;28;19925;-85
2022/01/27 15:22:03;;;;;;;;;;;8.20;99.90;;;;;;5075693;28;20019;-85
2022/01/27 15:24:29;;;;;;;;;;;7.90;99.90;;;;;;5058881;28;19970;-84